Time;durP1;ratioP1;P1;durP2;ratioP2;P2;SDS_P1;SDS_P2;PMS_P1;PMS_P2;Temp;Humidity;BMP_temperature;BMP_pressure;BME280_temperature;BME280_humidity;BME280_pressure;Samples;Min_cycle;Max_cycle;Signal;HPM_P1;HPM_P2
2021/08/06 00:00:57;;;;;;;;;1.00;1.00;;;;;19.86;64.23;100084.81;5058477;28;45402;-85
2021/08/06 00:03:23;;;;;;;;;1.33;1.00;;;;;19.81;63.87;100073.44;5057803;28;45441;-86
2021/08/06 00:05:48;;;;;;;;;2.00;2.00;;;;;19.77;63.98;100064.69;5073034;28;45428;-85
2021/08/06 00:08:14;;;;;;;;;2.33;1.00;;;;;19.76;64.17;100073.59;5057180;28;45303;-84
2021/08/06 00:10:39;;;;;;;;;2.33;2.00;;;;;19.74;64.11;100080.75;5057573;28;45237;-84
2021/08/06 00:13:05;;;;;;;;;5.00;0.00;;;;;19.69;64.21;100076.50;5057055;28;46372;-85
2021/08/06 00:15:30;;;;;;;;;1.00;1.00;;;;;19.73;64.08;100087.03;5055918;28;45442;-85
2021/08/06 00:17:55;;;;;;;;;6.00;1.67;;;;;19.71;63.88;100086.22;5057614;28;45651;-85
2021/08/06 00:20:21;;;;;;;;;2.00;1.33;;;;;19.60;64.05;100067.00;5057602;28;45510;-85
2021/08/06 00:22:46;;;;;;;;;1.67;1.67;;;;;19.66;63.98;100088.13;5056825;28;45453;-85
2021/08/06 00:25:12;;;;;;;;;2.00;2.00;;;;;19.63;64.05;100082.91;5055959;28;45460;-84
2021/08/06 00:27:37;;;;;;;;;2.67;1.00;;;;;19.55;64.30;100077.78;5055686;28;45333;-87
2021/08/06 00:30:04;;;;;;;;;3.00;2.00;;;;;19.59;64.27;100075.88;5056007;28;45410;-85
2021/08/06 00:32:29;;;;;;;;;4.67;1.33;;;;;19.52;64.47;100070.75;5056661;28;47450;-87
2021/08/06 00:34:55;;;;;;;;;3.00;2.00;;;;;19.60;64.25;100072.31;5056740;28;45326;-86
2021/08/06 00:37:20;;;;;;;;;3.00;2.00;;;;;19.58;64.44;100076.81;5057050;28;45347;-87
2021/08/06 00:39:46;;;;;;;;;4.00;2.00;;;;;19.59;64.35;100081.22;5057503;28;45299;-87
2021/08/06 00:42:11;;;;;;;;;4.00;2.00;;;;;19.52;64.29;100076.06;5055867;28;47184;-87
2021/08/06 00:44:36;;;;;;;;;1.00;1.00;;;;;19.57;64.45;100083.94;5057438;28;45649;-87
2021/08/06 00:47:02;;;;;;;;;1.67;1.00;;;;;19.58;64.45;100084.81;5073052;28;45436;-87
2021/08/06 00:49:28;;;;;;;;;1.67;1.67;;;;;19.56;64.57;100076.88;5057162;28;45424;-86
2021/08/06 00:51:54;;;;;;;;;2.33;2.33;;;;;19.51;64.54;100070.81;5055155;28;48269;-87
2021/08/06 00:54:19;;;;;;;;;2.00;1.00;;;;;19.48;64.60;100078.91;5055387;28;45585;-87
2021/08/06 00:56:48;;;;;;;;;2.33;1.67;;;;;19.52;64.53;100080.56;5056992;28;45314;-86
2021/08/06 00:59:14;;;;;;;;;1.33;1.33;;;;;19.53;64.66;100082.28;5058835;28;45334;-86
2021/08/06 01:01:40;;;;;;;;;6.00;2.00;;;;;19.54;64.42;100084.91;5059531;28;46627;-86
2021/08/06 01:04:10;;;;;;;;;5.33;2.67;;;;;19.46;64.22;100065.59;5075248;27;45352;-85
2021/08/06 01:07:02;;;;;;;;;3.00;2.00;;;;;19.50;64.20;100090.41;5059665;28;45444;-86
2021/08/06 01:09:53;;;;;;;;;2.00;2.00;;;;;19.50;64.18;100093.91;5060241;28;45291;-86
2021/08/06 01:12:35;;;;;;;;;2.00;2.00;;;;;19.46;64.20;100092.25;5059685;28;46673;-84
2021/08/06 01:15:03;;;;;;;;;2.00;2.00;;;;;19.46;64.04;100092.25;5059500;28;45505;-86
2021/08/06 01:17:33;;;;;;;;;3.00;2.00;;;;;19.39;64.29;100070.28;5060169;28;45307;-86
2021/08/06 01:20:05;;;;;;;;;1.00;1.00;;;;;19.48;64.06;100084.25;5059960;28;45427;-86
2021/08/06 01:22:46;;;;;;;;;8.00;2.00;;;;;19.44;63.69;100073.66;5059841;28;45521;-86
2021/08/06 01:25:11;;;;;;;;;2.67;2.00;;;;;19.46;64.15;100086.94;5060287;28;45405;-86
2021/08/06 01:27:38;;;;;;;;;4.00;2.00;;;;;19.47;64.08;100087.81;5059703;28;45369;-86
2021/08/06 01:30:06;;;;;;;;;4.33;2.00;;;;;19.44;63.96;100079.00;5060118;28;45397;-86
2021/08/06 01:32:32;;;;;;;;;2.33;2.00;;;;;19.46;64.13;100083.41;5059956;28;47354;-86
2021/08/06 01:34:58;;;;;;;;;3.33;2.00;;;;;19.44;63.95;100091.44;5059679;28;45470;-86
2021/08/06 01:37:23;;;;;;;;;3.00;1.67;;;;;19.42;64.17;100077.28;5059760;28;45276;-86
2021/08/06 01:39:49;;;;;;;;;3.67;1.00;;;;;19.43;64.28;100085.25;5060048;28;45505;-86
2021/08/06 01:42:29;;;;;;;;;5.33;1.00;;;;;19.44;64.32;100081.66;5060358;28;46304;-86
2021/08/06 01:44:55;;;;;;;;;2.00;2.00;;;;;19.44;64.20;100078.09;5067067;28;45285;-83
2021/08/06 01:47:23;;;;;;;;;2.00;1.00;;;;;19.43;64.24;100074.59;5078514;28;44688;-84
2021/08/06 01:49:55;;;;;;;;;2.00;2.00;;;;;19.41;64.64;100072.88;5080385;28;45335;-86
2021/08/06 01:52:25;;;;;;;;;3.00;1.67;;;;;19.38;64.16;100073.84;5071842;28;46374;-85
2021/08/06 01:54:53;;;;;;;;;2.33;2.33;;;;;19.40;64.24;100071.13;5078215;28;45297;-85
2021/08/06 01:57:19;;;;;;;;;4.00;2.33;;;;;19.40;64.39;100084.44;5081427;28;45294;-85
2021/08/06 01:59:47;;;;;;;;;2.00;2.00;;;;;19.40;64.29;100085.34;5080214;28;44736;-85
2021/08/06 02:02:13;;;;;;;;;1.67;1.67;;;;;19.43;64.41;100082.59;5079095;28;45413;-84
2021/08/06 02:04:38;;;;;;;;;1.00;1.00;;;;;19.44;64.45;100067.44;5081001;28;45810;-83
2021/08/06 02:07:04;;;;;;;;;1.67;1.67;;;;;19.43;64.61;100074.59;5082002;28;45358;-85
2021/08/06 02:09:30;;;;;;;;;4.00;2.00;;;;;19.44;64.56;100080.78;5071225;28;45402;-86
2021/08/06 02:11:55;;;;;;;;;0.33;0.33;;;;;19.44;64.27;100083.44;5061144;28;45320;-85
2021/08/06 02:14:22;;;;;;;;;1.00;1.00;;;;;19.42;64.06;100074.63;5061902;28;45520;-85
2021/08/06 02:16:50;;;;;;;;;2.00;1.00;;;;;19.40;64.46;100071.13;5063717;28;45407;-85
2021/08/06 02:19:20;;;;;;;;;1.33;1.00;;;;;19.38;64.21;100089.84;5065584;28;45415;-85
2021/08/06 02:21:51;;;;;;;;;2.33;1.00;;;;;19.35;64.53;100081.06;5063980;28;47332;-84
2021/08/06 02:24:16;;;;;;;;;2.33;2.00;;;;;19.39;64.37;100096.94;5062427;28;45235;-85
2021/08/06 02:26:44;;;;;;;;;2.00;2.00;;;;;19.32;64.25;100095.34;5060028;28;45439;-85
2021/08/06 02:29:13;;;;;;;;;2.67;1.00;;;;;19.28;64.29;100091.91;5060439;28;45473;-85
2021/08/06 02:31:42;;;;;;;;;2.00;1.00;;;;;19.31;64.30;100098.94;5058684;28;45464;-86
2021/08/06 02:34:09;;;;;;;;;2.00;2.00;;;;;19.25;64.10;100086.66;5059489;28;45252;-85
2021/08/06 02:36:34;;;;;;;;;4.00;1.00;;;;;19.30;64.26;100103.41;5059405;28;45356;-85
2021/08/06 02:39:00;;;;;;;;;2.33;1.00;;;;;19.19;64.21;100089.50;5059125;28;45343;-85
2021/08/06 02:41:27;;;;;;;;;2.00;1.33;;;;;19.25;63.98;100105.31;5059641;28;46088;-85
2021/08/06 02:43:53;;;;;;;;;3.33;1.00;;;;;19.23;64.13;100099.16;5059461;28;45315;-85
2021/08/06 02:46:18;;;;;;;;;1.33;1.33;;;;;19.24;63.92;100102.69;5059160;28;45410;-85
2021/08/06 02:48:44;;;;;;;;;1.00;1.00;;;;;19.14;64.23;100096.72;5059662;28;45989;-85
2021/08/06 02:51:09;;;;;;;;;2.67;2.00;;;;;19.21;64.31;100114.31;5059397;28;45319;-85
2021/08/06 02:53:34;;;;;;;;;4.00;2.33;;;;;19.21;64.13;100115.19;5074639;28;45325;-85
2021/08/06 02:56:00;;;;;;;;;2.00;2.00;;;;;19.21;63.93;100114.31;5057578;28;45526;-86
2021/08/06 02:58:25;;;;;;;;;3.33;2.00;;;;;19.12;63.78;100115.41;5059500;28;45315;-85
2021/08/06 03:00:51;;;;;;;;;1.00;1.00;;;;;19.14;63.68;100120.72;5058427;28;46102;-86
2021/08/06 03:03:17;;;;;;;;;1.67;0.00;;;;;19.08;63.73;100122.59;5058134;28;45216;-85
2021/08/06 03:05:43;;;;;;;;;1.00;1.00;;;;;19.06;63.65;100121.78;5058201;28;45370;-85
2021/08/06 03:08:08;;;;;;;;;0.00;0.00;;;;;19.11;63.54;100121.66;5058416;28;45318;-85
2021/08/06 03:10:35;;;;;;;;;3.67;1.00;;;;;19.10;63.45;100125.22;5057881;28;45418;-85
2021/08/06 03:13:00;;;;;;;;;1.00;1.00;;;;;19.04;63.37;100112.06;5056353;28;45477;-85
2021/08/06 03:15:26;;;;;;;;;1.00;1.00;;;;;19.07;63.48;100122.66;5057792;28;45307;-86
2021/08/06 03:17:52;;;;;;;;;2.00;1.00;;;;;19.07;63.61;100135.97;5073805;28;45421;-85
2021/08/06 03:20:21;;;;;;;;;1.67;1.33;;;;;19.04;63.44;100128.94;5057392;28;46240;-85
2021/08/06 03:22:48;;;;;;;;;1.00;1.00;;;;;19.04;63.54;100125.41;5056365;28;45400;-86
2021/08/06 03:25:13;;;;;;;;;3.67;0.33;;;;;19.05;63.35;100125.38;5057499;28;45330;-85
2021/08/06 03:27:39;;;;;;;;;1.00;1.00;;;;;19.01;63.30;100120.16;5057730;28;45307;-85
2021/08/06 03:30:06;;;;;;;;;2.00;0.67;;;;;19.02;63.33;100130.78;5058007;28;46208;-85
2021/08/06 03:32:32;;;;;;;;;0.67;0.67;;;;;19.02;63.03;100133.44;5064530;28;45392;-84
2021/08/06 03:34:57;;;;;;;;;2.00;1.00;;;;;18.99;63.02;100130.88;5067603;28;45526;-85
2021/08/06 03:37:22;;;;;;;;;1.00;1.00;;;;;18.97;62.96;100138.88;5065389;28;45240;-84
2021/08/06 03:39:48;;;;;;;;;0.67;0.00;;;;;18.90;63.01;100126.66;5063020;28;45442;-86
2021/08/06 03:42:13;;;;;;;;;0.67;0.67;;;;;18.96;63.14;100138.94;5058072;28;45485;-86
2021/08/06 03:44:39;;;;;;;;;1.00;1.00;;;;;18.94;62.84;100132.78;5058377;28;45380;-85
2021/08/06 03:47:04;;;;;;;;;0.67;0.67;;;;;18.89;63.13;100124.91;5058706;28;45325;-84
2021/08/06 03:49:30;;;;;;;;;0.67;0.67;;;;;18.92;63.02;100132.81;5057189;28;46113;-84
2021/08/06 03:51:55;;;;;;;;;0.33;0.33;;;;;18.86;63.11;100120.56;5057547;28;45317;-84
2021/08/06 03:54:20;;;;;;;;;1.00;1.00;;;;;18.87;63.08;100137.38;5056003;28;45397;-85
2021/08/06 03:56:46;;;;;;;;;1.00;1.00;;;;;18.85;63.09;100145.44;5057396;28;45284;-85
2021/08/06 03:59:11;;;;;;;;;1.00;1.00;;;;;18.79;63.13;100150.91;5056758;28;45321;-84
2021/08/06 04:01:37;;;;;;;;;1.67;0.00;;;;;18.77;63.09;100152.75;5057056;28;45152;-84
2021/08/06 04:04:02;;;;;;;;;2.00;1.00;;;;;18.80;63.19;100152.69;5057566;28;45279;-85
2021/08/06 04:06:28;;;;;;;;;0.67;0.67;;;;;18.77;63.24;100146.53;5057805;28;45430;-85
2021/08/06 04:08:53;;;;;;;;;2.67;0.67;;;;;18.80;63.09;100158.00;5057041;28;45295;-85
2021/08/06 04:11:20;;;;;;;;;2.00;0.67;;;;;18.79;63.18;100155.34;5056788;28;45377;-85
2021/08/06 04:13:46;;;;;;;;;1.00;1.00;;;;;18.77;63.41;100160.72;5056934;28;45433;-86
2021/08/06 04:16:12;;;;;;;;;0.33;0.00;;;;;18.69;63.08;100154.72;5057110;28;45523;-84
2021/08/06 04:18:38;;;;;;;;;1.00;1.00;;;;;18.68;63.24;100160.94;5056492;28;46365;-84
2021/08/06 04:21:03;;;;;;;;;0.67;0.67;;;;;18.71;63.08;100182.19;5056126;28;45366;-84
2021/08/06 04:23:28;;;;;;;;;0.67;0.67;;;;;18.75;62.95;100178.53;5056652;28;45735;-84
2021/08/06 04:25:54;;;;;;;;;0.67;0.67;;;;;18.63;63.08;100164.59;5056921;28;45390;-84
2021/08/06 04:28:19;;;;;;;;;1.00;0.67;;;;;18.72;63.14;100174.16;5056166;28;46494;-84
2021/08/06 04:30:45;;;;;;;;;3.33;0.00;;;;;18.75;63.09;100175.88;5055858;28;45479;-84
2021/08/06 04:33:10;;;;;;;;;0.67;0.67;;;;;18.76;63.06;100174.97;5056869;28;45304;-84
2021/08/06 04:35:36;;;;;;;;;1.00;1.00;;;;;18.78;62.99;100188.25;5059816;28;45314;-85
2021/08/06 04:38:01;;;;;;;;;3.00;0.67;;;;;18.77;62.99;100191.78;5059610;28;46005;-84
2021/08/06 04:40:27;;;;;;;;;1.67;0.00;;;;;18.77;62.86;100192.69;5075226;28;45398;-84
2021/08/06 04:42:53;;;;;;;;;2.00;1.33;;;;;18.78;62.96;100197.09;5059675;28;45263;-84
2021/08/06 04:45:19;;;;;;;;;1.00;1.00;;;;;18.74;62.64;100193.63;5059714;28;45224;-84
2021/08/06 04:47:44;;;;;;;;;2.00;1.00;;;;;18.75;62.62;100205.16;5059334;28;45306;-84
2021/08/06 04:50:12;;;;;;;;;2.67;1.00;;;;;18.70;62.31;100202.59;5059447;28;45343;-85
2021/08/06 04:52:37;;;;;;;;;2.33;0.67;;;;;18.68;62.50;100201.75;5058408;28;45429;-86
2021/08/06 04:55:03;;;;;;;;;0.67;0.67;;;;;18.62;62.60;100202.81;5075367;28;45405;-85
2021/08/06 04:57:28;;;;;;;;;0.67;0.67;;;;;18.68;62.41;100200.88;5060560;28;45925;-85
2021/08/06 04:59:53;;;;;;;;;2.33;0.67;;;;;18.69;62.40;100207.97;5060570;28;45431;-84
2021/08/06 05:02:19;;;;;;;;;2.33;0.67;;;;;18.68;62.41;100200.88;5061596;28;45314;-85
2021/08/06 05:04:44;;;;;;;;;0.67;0.67;;;;;18.65;62.48;100198.31;5061222;28;45303;-85
2021/08/06 05:07:18;;;;;;;;;0.67;0.67;;;;;18.71;62.29;100211.47;5060856;28;45578;-85
2021/08/06 05:09:47;;;;;;;;;0.00;0.00;;;;;18.72;61.63;100205.22;5060305;28;45413;-85
2021/08/06 05:12:13;;;;;;;;;1.33;1.33;;;;;18.70;62.30;100223.03;5060809;28;45420;-86
2021/08/06 05:14:40;;;;;;;;;0.00;0.00;;;;;18.69;62.09;100214.19;5060410;28;45354;-85
2021/08/06 05:17:06;;;;;;;;;1.33;0.33;;;;;18.70;62.12;100213.25;5060904;28;46711;-86
2021/08/06 05:19:31;;;;;;;;;2.00;0.33;;;;;18.67;61.76;100209.81;5059696;28;45465;-85
2021/08/06 05:21:57;;;;;;;;;1.67;0.00;;;;;18.70;62.01;100221.25;5062308;28;45895;-85
2021/08/06 05:24:22;;;;;;;;;1.00;0.67;;;;;18.67;61.92;100204.47;5061898;28;45401;-85
2021/08/06 05:26:48;;;;;;;;;2.33;0.67;;;;;18.67;61.96;100204.47;5061403;28;45637;-85
2021/08/06 05:29:13;;;;;;;;;2.00;0.33;;;;;18.68;61.72;100211.53;5076740;28;45662;-85
2021/08/06 05:31:39;;;;;;;;;1.00;1.00;;;;;18.68;61.66;100208.88;5061280;28;45392;-85
2021/08/06 05:34:04;;;;;;;;;1.00;1.00;;;;;18.66;61.62;100202.72;5060260;28;45329;-85
2021/08/06 05:36:30;;;;;;;;;0.67;0.67;;;;;18.62;61.99;100208.13;5060521;28;45426;-85
2021/08/06 05:38:55;;;;;;;;;1.67;0.00;;;;;18.65;61.81;100211.63;5059927;28;45386;-86
2021/08/06 05:41:20;;;;;;;;;0.00;0.00;;;;;18.67;61.42;100209.81;5058600;28;45343;-85
2021/08/06 05:43:46;;;;;;;;;0.33;0.00;;;;;18.68;61.97;100207.09;5059636;28;45241;-86
2021/08/06 05:46:11;;;;;;;;;1.67;0.00;;;;;18.68;61.85;100200.88;5057790;28;46024;-85
2021/08/06 05:48:36;;;;;;;;;0.67;0.67;;;;;18.67;61.55;100209.81;5059208;28;45181;-85
2021/08/06 05:51:02;;;;;;;;;0.67;0.67;;;;;18.66;61.85;100210.69;5059494;28;45556;-85
2021/08/06 05:53:28;;;;;;;;;0.67;0.67;;;;;18.66;61.66;100216.03;5059099;28;45397;-86
2021/08/06 05:55:53;;;;;;;;;1.00;1.00;;;;;18.66;61.74;100219.56;5058681;28;46459;-85
2021/08/06 05:58:18;;;;;;;;;2.00;0.00;;;;;18.66;61.90;100208.03;5059191;28;45251;-84
2021/08/06 06:00:44;;;;;;;;;1.67;0.67;;;;;18.68;62.13;100217.75;5058809;28;45272;-85
2021/08/06 06:03:09;;;;;;;;;1.67;0.67;;;;;18.73;61.75;100223.84;5059631;28;45272;-85
2021/08/06 06:05:35;;;;;;;;;4.33;1.00;;;;;18.72;62.26;100213.22;5059179;28;45442;-86
2021/08/06 06:08:00;;;;;;;;;1.67;1.67;;;;;18.78;62.11;100218.41;5059206;28;45211;-85
2021/08/06 06:10:25;;;;;;;;;0.67;0.67;;;;;18.79;62.10;100213.94;5060022;28;46138;-85
2021/08/06 06:12:51;;;;;;;;;1.00;1.00;;;;;18.77;62.34;100216.66;5059897;28;45363;-85
2021/08/06 06:15:18;;;;;;;;;0.33;0.33;;;;;18.77;62.08;100216.66;5059438;28;46927;-85
2021/08/06 06:17:44;;;;;;;;;1.67;1.33;;;;;18.77;62.11;100221.09;5057860;28;45381;-85
2021/08/06 06:20:10;;;;;;;;;1.00;0.67;;;;;18.78;62.33;100238.81;5058542;28;45347;-85
2021/08/06 06:22:36;;;;;;;;;2.67;0.00;;;;;18.74;62.00;100233.56;5059922;28;45474;-85
2021/08/06 06:25:02;;;;;;;;;1.33;0.33;;;;;18.79;62.11;100235.22;5058861;28;45554;-84
2021/08/06 06:27:27;;;;;;;;;3.33;0.67;;;;;18.83;62.17;100242.22;5060005;28;45194;-85
2021/08/06 06:29:53;;;;;;;;;0.00;0.00;;;;;18.81;62.35;100234.28;5059363;28;45496;-84
2021/08/06 06:32:18;;;;;;;;;0.67;0.67;;;;;18.87;62.04;100235.91;5059689;28;45278;-85
2021/08/06 06:34:43;;;;;;;;;0.00;0.00;;;;;18.86;61.95;100232.41;5058943;28;46373;-85
2021/08/06 06:37:09;;;;;;;;;0.67;0.67;;;;;18.84;61.67;100226.25;5058524;28;45322;-85
2021/08/06 06:39:34;;;;;;;;;1.00;0.33;;;;;18.85;61.98;100235.97;5060011;27;45413;-85
2021/08/06 06:42:00;;;;;;;;;0.00;0.00;;;;;18.89;61.92;100258.06;5058922;28;45380;-85
2021/08/06 06:44:25;;;;;;;;;0.33;0.33;;;;;18.87;61.73;100254.56;5058356;28;45704;-85
2021/08/06 06:46:51;;;;;;;;;0.00;0.00;;;;;18.83;61.94;100237.78;5058264;28;45516;-85
2021/08/06 06:49:16;;;;;;;;;0.67;0.67;;;;;18.87;62.17;100249.22;5057698;28;45786;-85
2021/08/06 06:51:42;;;;;;;;;0.00;0.00;;;;;18.86;62.00;100245.72;5058898;28;45319;-85
2021/08/06 06:54:07;;;;;;;;;0.00;0.00;;;;;18.90;61.93;100241.19;5057233;28;47191;-84
2021/08/06 06:56:33;;;;;;;;;1.00;1.00;;;;;18.91;61.96;100256.22;5057189;28;45484;-84
2021/08/06 06:58:58;;;;;;;;;0.00;0.00;;;;;18.95;61.64;100263.22;5059258;28;45561;-85
2021/08/06 07:01:24;;;;;;;;;0.67;0.67;;;;;18.93;61.79;100242.91;5058592;28;45321;-84
2021/08/06 07:03:49;;;;;;;;;1.33;0.00;;;;;18.89;61.86;100238.56;5058480;28;45528;-85
2021/08/06 07:06:18;;;;;;;;;0.00;0.00;;;;;18.99;61.63;100256.06;5058478;28;45367;-84
2021/08/06 07:08:44;;;;;;;;;2.00;0.00;;;;;18.97;61.71;100252.56;5058644;28;45487;-84
2021/08/06 07:11:10;;;;;;;;;0.67;0.00;;;;;19.01;61.69;100267.56;5059045;28;45222;-84
2021/08/06 07:13:35;;;;;;;;;0.00;0.00;;;;;19.05;61.57;100263.91;5057519;28;46120;-85
2021/08/06 07:16:01;;;;;;;;;1.33;0.33;;;;;19.07;61.88;100256.75;5058312;28;45153;-85
2021/08/06 07:18:26;;;;;;;;;0.67;0.67;;;;;19.10;61.68;100269.97;5057472;28;45347;-85
2021/08/06 07:20:52;;;;;;;;;0.33;0.00;;;;;19.10;61.57;100267.28;5058629;28;45358;-85
2021/08/06 07:23:18;;;;;;;;;1.50;0.00;;;;;19.12;61.36;100274.38;5058620;28;45594;-85
2021/08/06 07:25:43;;;;;;;;;0.00;0.00;;;;;19.07;61.40;100277.16;5073770;28;45481;-85
2021/08/06 07:28:09;;;;;;;;;0.33;0.00;;;;;19.05;61.39;100277.22;5058687;28;45301;-86
2021/08/06 07:30:34;;;;;;;;;1.00;1.00;;;;;19.04;61.76;100272.78;5058893;28;45272;-85
2021/08/06 07:32:59;;;;;;;;;0.67;0.00;;;;;19.08;61.46;100284.22;5057108;28;47877;-85
2021/08/06 07:35:28;;;;;;;;;0.67;0.00;;;;;19.01;61.35;100274.66;5058370;28;45389;-85
2021/08/06 07:37:54;;;;;;;;;0.00;0.00;;;;;19.07;61.67;100280.72;5057532;28;45390;-86
2021/08/06 07:40:20;;;;;;;;;0.00;0.00;;;;;19.09;61.34;100284.22;5057873;28;45303;-85
2021/08/06 07:42:46;;;;;;;;;0.00;0.00;;;;;19.10;61.54;100283.28;5057876;28;46198;-85
2021/08/06 07:45:12;;;;;;;;;0.33;0.00;;;;;19.17;61.22;100296.47;5058106;28;45480;-85
2021/08/06 07:47:39;;;;;;;;;1.00;1.00;;;;;19.18;61.17;100290.25;5057877;28;45302;-85
2021/08/06 07:50:05;;;;;;;;;2.33;0.00;;;;;19.09;61.27;100281.53;5058258;28;45573;-86
2021/08/06 07:52:30;;;;;;;;;1.00;1.00;;;;;19.17;61.43;100301.81;5057414;28;46592;-85
2021/08/06 07:54:55;;;;;;;;;0.33;0.33;;;;;19.13;61.68;100293.00;5057593;28;45492;-85
2021/08/06 07:57:21;;;;;;;;;2.00;0.00;;;;;19.13;61.81;100298.31;5058176;28;45267;-85
2021/08/06 07:59:46;;;;;;;;;0.00;0.00;;;;;19.12;61.85;100299.22;5058473;28;45386;-85
2021/08/06 08:02:12;;;;;;;;;0.33;0.33;;;;;19.18;61.83;100300.91;5057921;28;45419;-85
2021/08/06 08:04:37;;;;;;;;;1.00;1.00;;;;;19.16;61.92;100306.25;5057175;28;45537;-85
2021/08/06 08:07:03;;;;;;;;;3.00;1.00;;;;;19.16;61.72;100300.06;5058410;28;45281;-86
2021/08/06 08:09:29;;;;;;;;;2.00;1.00;;;;;19.15;61.75;100311.63;5076619;28;45515;-85
2021/08/06 08:11:54;;;;;;;;;1.00;0.00;;;;;19.15;61.85;100325.81;5061661;28;46344;-85
2021/08/06 08:14:20;;;;;;;;;2.00;0.00;;;;;19.17;61.93;100316.00;5061868;28;45364;-86
2021/08/06 08:16:45;;;;;;;;;0.00;0.00;;;;;19.13;61.68;100311.63;5062743;28;45617;-85
2021/08/06 08:19:11;;;;;;;;;0.00;0.00;;;;;19.20;62.04;100312.41;5061030;28;45484;-85
2021/08/06 08:21:36;;;;;;;;;1.00;0.00;;;;;19.23;61.84;100308.78;5062010;28;46442;-85
2021/08/06 08:24:02;;;;;;;;;1.67;0.00;;;;;19.24;61.65;100311.41;5061890;28;45366;-87
2021/08/06 08:26:28;;;;;;;;;1.00;0.00;;;;;19.26;61.67;100314.03;5061630;28;45347;-86
2021/08/06 08:28:53;;;;;;;;;0.00;0.00;;;;;19.19;61.61;100290.19;5062007;28;45366;-85
2021/08/06 08:31:19;;;;;;;;;2.00;0.00;;;;;19.29;61.59;100308.63;5061384;28;46083;-85
2021/08/06 08:33:45;;;;;;;;;0.00;0.00;;;;;19.27;61.19;100305.13;5061517;28;45399;-85
2021/08/06 08:36:11;;;;;;;;;0.00;0.00;;;;;19.28;61.16;100291.75;5061305;28;45264;-85
2021/08/06 08:38:36;;;;;;;;;1.00;0.00;;;;;19.34;61.38;100317.38;5061717;28;45161;-85
2021/08/06 08:41:03;;;;;;;;;1.00;0.67;;;;;19.33;61.19;100305.81;5060994;28;45424;-86
2021/08/06 08:43:28;;;;;;;;;3.33;0.00;;;;;19.41;60.72;100307.44;5067077;28;45351;-85
2021/08/06 08:45:55;;;;;;;;;0.67;0.00;;;;;19.44;61.19;100312.66;5076757;28;44693;-85
2021/08/06 08:48:21;;;;;;;;;0.33;0.33;;;;;19.48;60.98;100317.00;5074987;28;45701;-85
2021/08/06 08:50:48;;;;;;;;;0.33;0.33;;;;;19.54;60.46;100315.97;5066718;28;46105;-85
2021/08/06 08:53:14;;;;;;;;;1.00;1.00;;;;;19.59;60.81;100322.03;5061205;28;45363;-85
2021/08/06 08:55:39;;;;;;;;;0.00;0.00;;;;;19.59;60.51;100318.50;5061197;28;45440;-85
2021/08/06 08:58:06;;;;;;;;;1.67;1.00;;;;;19.62;60.51;100323.75;5061458;28;45451;-85
2021/08/06 09:00:32;;;;;;;;;1.67;0.67;;;;;19.68;60.67;100328.91;5060987;28;46166;-85
2021/08/06 09:02:57;;;;;;;;;1.00;0.00;;;;;19.72;60.23;100333.25;5061092;28;45574;-85
2021/08/06 09:05:28;;;;;;;;;3.67;1.00;;;;;19.75;60.08;100340.31;5061382;28;45640;-84
2021/08/06 09:07:54;;;;;;;;;0.00;0.00;;;;;19.79;60.23;100345.53;5059625;28;45506;-86
2021/08/06 09:10:24;;;;;;;;;1.00;0.00;;;;;19.78;60.00;100322.41;5060682;28;45420;-84
2021/08/06 09:12:51;;;;;;;;;1.00;0.00;;;;;19.87;60.07;100331.97;5043356;28;45401;-87
2021/08/06 09:15:38;;;;;;;;;1.00;0.00;;;;;19.95;59.95;100337.06;5060886;28;45366;-84
2021/08/06 09:18:03;;;;;;;;;1.00;0.00;;;;;20.13;59.94;100345.50;5060606;28;45310;-87
2021/08/06 09:20:39;;;;;;;;;2.00;0.00;;;;;20.21;59.61;100335.50;5059297;28;45440;-87
2021/08/06 09:23:05;;;;;;;;;0.00;0.00;;;;;20.27;59.27;100338.88;5059001;28;45335;-87
2021/08/06 09:25:36;;;;;;;;;0.00;0.00;;;;;20.30;59.08;100334.34;5060353;28;45815;-86
2021/08/06 09:28:02;;;;;;;;;0.00;0.00;;;;;;;;5060182;28;45494;-86
2021/08/06 09:30:36;;;;;;;;;0.00;0.00;;;;;20.54;58.91;100347.00;5060350;28;46644;-86
2021/08/06 09:33:03;;;;;;;;;0.33;0.33;;;;;20.77;59.09;100342.75;5060487;28;45376;-87
2021/08/06 09:35:32;;;;;;;;;0.00;0.00;;;;;20.88;58.43;100358.41;5060885;28;45255;-85
2021/08/06 09:37:59;;;;;;;;;1.00;1.00;;;;;20.88;58.24;100355.72;5061068;28;45204;-86
2021/08/06 09:40:26;;;;;;;;;1.00;1.00;;;;;20.85;58.69;100356.72;5060011;28;46357;-85
2021/08/06 09:43:03;;;;;;;;;0.00;0.00;;;;;20.77;58.76;100364.97;5060535;28;45477;-85
2021/08/06 09:45:37;;;;;;;;;0.33;0.00;;;;;20.71;59.00;100354.47;5060542;28;45390;-85
2021/08/06 09:48:04;;;;;;;;;2.00;0.00;;;;;20.65;59.10;100343.97;5060594;28;45323;-85
2021/08/06 09:50:38;;;;;;;;;2.00;0.00;;;;;20.61;59.35;100356.56;5059893;28;45760;-85
2021/08/06 09:53:04;;;;;;;;;0.33;0.00;;;;;20.62;59.06;100344.09;5060360;28;45346;-85
2021/08/06 09:55:38;;;;;;;;;0.00;0.00;;;;;20.78;59.43;100347.16;5060009;28;45318;-85
2021/08/06 09:58:08;;;;;;;;;1.00;1.00;;;;;20.92;58.85;100344.03;5076140;27;45487;-85
2021/08/06 10:00:46;;;;;;;;;1.00;1.00;;;;;20.93;58.77;100332.44;5060145;28;45405;-85
2021/08/06 10:03:29;;;;;;;;;0.00;0.00;;;;;21.12;58.44;100356.78;5060398;28;45478;-85
2021/08/06 10:06:14;;;;;;;;;1.00;1.00;;;;;21.21;58.57;100349.38;5060988;28;45190;-84
2021/08/06 10:08:41;;;;;;;;;2.00;2.00;;;;;21.26;58.41;100345.63;5061338;28;45315;-85
2021/08/06 10:11:07;;;;;;;;;2.00;0.00;;;;;21.33;57.49;100362.34;5059932;28;45445;-84
2021/08/06 10:13:33;;;;;;;;;2.00;0.67;;;;;21.34;57.52;100352.53;5058821;28;45449;-85
2021/08/06 10:15:58;;;;;;;;;2.00;0.00;;;;;21.27;57.00;100358.09;5074815;28;45403;-84
2021/08/06 10:18:25;;;;;;;;;1.00;0.00;;;;;21.28;57.17;100354.47;5083381;27;44772;-84
2021/08/06 10:20:51;;;;;;;;;0.00;0.00;;;;;21.27;57.06;100357.19;5067153;28;45677;-84
2021/08/06 10:23:17;;;;;;;;;0.00;0.00;;;;;21.24;56.99;100358.16;5060682;28;45274;-85
2021/08/06 10:25:43;;;;;;;;;0.00;0.00;;;;;21.28;56.95;100364.28;5060605;28;45362;-85
2021/08/06 10:28:09;;;;;;;;;0.67;0.67;;;;;21.28;57.05;100350.91;5077227;27;45327;-85
2021/08/06 10:30:37;;;;;;;;;1.67;0.00;;;;;21.31;57.16;100364.19;5059165;28;45372;-84
2021/08/06 10:33:24;;;;;;;;;0.00;0.00;;;;;21.35;56.82;100360.50;5059834;28;45524;-84
2021/08/06 10:36:02;;;;;;;;;1.00;0.00;;;;;21.39;56.80;100356.78;5059923;28;45402;-86
2021/08/06 10:38:42;;;;;;;;;0.00;0.00;;;;;21.50;56.67;100364.44;5059261;28;45518;-86
2021/08/06 10:41:16;;;;;;;;;0.00;0.00;;;;;21.47;56.35;100359.19;5059579;28;46402;-86
2021/08/06 10:43:44;;;;;;;;;1.00;0.00;;;;;21.50;56.33;100361.78;5059470;28;45431;-86
2021/08/06 10:46:11;;;;;;;;;0.00;0.00;;;;;21.53;56.30;100355.44;5058755;28;45417;-85
2021/08/06 10:48:53;;;;;;;;;1.00;1.00;;;;;21.59;56.22;100360.59;5073823;28;45406;-87
2021/08/06 10:51:23;;;;;;;;;0.33;0.33;;;;;21.64;55.80;100357.72;5084414;28;45403;-85
2021/08/06 10:53:54;;;;;;;;;1.33;1.33;;;;;21.64;55.56;100352.38;5083530;28;44657;-84
2021/08/06 10:56:24;;;;;;;;;0.33;0.00;;;;;21.64;55.61;100347.03;5082006;28;45331;-86
2021/08/06 10:58:53;;;;;;;;;1.00;1.00;;;;;21.63;55.36;100351.53;5072276;28;45249;-86
2021/08/06 11:01:27;;;;;;;;;2.00;1.00;;;;;21.64;55.56;100361.28;5060550;28;46100;-86
2021/08/06 11:04:04;;;;;;;;;2.00;1.00;;;;;21.66;55.32;100349.66;5057237;28;45453;-86
2021/08/06 11:06:34;;;;;;;;;1.33;1.00;;;;;21.71;55.47;100351.25;5059614;28;45408;-86
2021/08/06 11:09:01;;;;;;;;;1.00;1.00;;;;;21.74;55.05;100372.53;5059383;28;45382;-86
2021/08/06 11:11:49;;;;;;;;;1.33;1.00;;;;;21.69;54.78;100362.91;5057559;28;47201;-85
2021/08/06 11:14:29;;;;;;;;;2.00;1.00;;;;;21.61;54.92;100360.53;5059341;28;45540;-85
2021/08/06 11:17:11;;;;;;;;;2.00;1.00;;;;;21.55;54.74;100379.47;5058378;28;45398;-86
2021/08/06 11:19:41;;;;;;;;;0.00;0.00;;;;;21.51;55.62;100362.66;5058157;28;45347;-86
2021/08/06 11:22:17;;;;;;;;;1.67;1.00;;;;;21.57;54.98;100361.56;5058859;28;46558;-86
2021/08/06 11:24:49;;;;;;;;;1.00;1.00;;;;;21.69;55.34;100369.16;5058388;28;45416;-86
2021/08/06 11:27:16;;;;;;;;;3.00;1.67;;;;;21.82;55.41;100369.59;5059138;28;45172;-85